createdAt,value
2018-04-20T13:21:57.927Z,27.00
2018-04-20T13:24:30.569Z,27.00
2018-04-20T13:27:02.466Z,27.00
2018-04-20T13:29:35.102Z,27.00
2018-04-20T13:32:07.011Z,27.00
2018-04-20T13:34:39.666Z,27.00
2018-04-20T13:37:11.873Z,27.00
2018-04-20T13:39:43.785Z,27.00
2018-04-20T13:42:15.670Z,26.90
2018-04-20T13:44:48.578Z,26.80
2018-04-20T13:47:20.458Z,26.80
2018-04-20T13:49:52.354Z,26.80
2018-04-20T13:52:24.563Z,26.90
2018-04-20T13:54:56.460Z,26.90
2018-04-20T13:57:28.346Z,26.90
2018-04-20T14:00:00.241Z,26.90
2018-04-20T14:02:32.901Z,26.90
2018-04-20T14:05:05.555Z,26.80
2018-04-20T14:07:37.446Z,26.80
2018-04-20T14:10:10.102Z,26.80
2018-04-20T14:12:42.311Z,26.80
2018-04-20T14:15:14.218Z,26.80
2018-04-20T14:17:46.087Z,26.80
2018-04-20T14:20:17.979Z,26.80
2018-04-20T14:22:50.626Z,26.80
2018-04-20T14:25:22.560Z,26.80
2018-04-20T14:27:54.446Z,26.90
2018-04-20T14:30:26.339Z,26.80
2018-04-20T14:32:59.015Z,26.90
2018-04-20T14:35:31.666Z,26.80
2018-04-20T14:38:03.555Z,26.80
2018-04-20T14:40:36.446Z,26.80
2018-04-20T14:43:08.614Z,26.80
2018-04-20T14:45:40.509Z,26.90
2018-04-20T14:48:12.383Z,26.80
2018-04-20T14:50:44.270Z,26.90
2018-04-20T14:53:16.923Z,26.90
2018-04-20T14:55:48.823Z,26.90
2018-04-20T14:58:21.458Z,26.80
2018-04-20T15:00:53.351Z,26.80
2018-04-20T15:03:25.243Z,26.80
2018-04-20T15:05:57.134Z,26.80
2018-04-20T15:08:29.006Z,26.70
2018-04-20T15:11:00.898Z,26.70
2018-04-20T15:13:33.546Z,26.70
2018-04-20T15:16:05.437Z,26.70
2018-04-20T15:18:38.090Z,26.70
2018-04-20T15:21:10.298Z,26.70
2018-04-20T15:23:42.178Z,26.70
2018-04-20T15:26:14.090Z,26.70
2018-04-20T15:28:45.968Z,26.70
2018-04-20T16:01:08.275Z,26.50
2018-04-20T16:03:40.151Z,26.50
2018-04-20T16:06:12.802Z,26.50
2018-04-20T16:08:44.697Z,26.50
2018-04-20T16:11:17.345Z,26.50
2018-04-20T16:13:49.233Z,26.40
2018-04-20T16:16:21.885Z,26.40
2018-04-20T16:18:53.759Z,26.40
2018-04-20T16:21:26.412Z,26.40
2018-04-20T16:23:58.286Z,26.40
2018-04-20T16:26:30.187Z,26.40
2018-04-20T16:29:02.054Z,26.40
2018-04-20T16:31:33.947Z,26.30
2018-04-20T16:34:05.823Z,26.30
2018-04-20T16:36:37.718Z,26.30
2018-04-20T16:39:09.719Z,26.20
2018-04-20T16:41:41.483Z,26.20
2018-04-20T16:44:13.354Z,26.20
2018-04-20T16:46:46.754Z,26.20
2018-04-20T16:49:18.642Z,26.20
2018-04-20T16:51:51.298Z,26.20
2018-04-20T16:54:23.170Z,26.20
2018-04-20T16:56:55.053Z,26.20
2018-04-20T16:59:27.946Z,26.10
2018-04-20T17:01:59.830Z,26.10
2018-04-20T17:04:31.974Z,26.10
2018-04-20T17:07:03.862Z,26.10
2018-04-20T17:09:35.744Z,26.10
2018-04-20T17:12:07.684Z,26.10
2018-04-20T17:14:39.623Z,26.00
2018-04-20T17:17:12.494Z,26.00
2018-04-20T17:19:44.658Z,25.90
2018-04-20T17:22:16.547Z,25.90
2018-04-20T17:24:48.440Z,25.80
2018-04-20T17:27:20.322Z,25.80
2018-04-20T17:29:53.786Z,25.70
2018-04-20T17:32:25.676Z,25.70
2018-04-20T17:34:58.314Z,25.60
2018-04-20T17:37:30.223Z,25.60
2018-04-20T17:40:02.941Z,25.50
2018-04-20T17:42:34.841Z,25.50
2018-04-20T17:45:06.762Z,25.50
2018-04-20T17:47:38.651Z,25.40
2018-04-20T17:50:10.537Z,25.30
2018-04-20T17:52:43.185Z,25.20
2018-04-20T17:55:15.076Z,25.20
2018-04-20T17:57:47.726Z,25.20
2018-04-20T18:00:19.606Z,25.10
2018-04-20T18:02:51.512Z,25.10
2018-04-20T18:05:23.414Z,25.00
2018-04-20T18:07:55.305Z,24.90
2018-04-20T18:10:27.946Z,24.80
2018-04-20T18:12:59.842Z,24.80
2018-04-20T18:15:32.482Z,24.60
2018-04-20T18:18:04.610Z,24.60
2018-04-20T18:20:36.481Z,24.50
2018-04-20T18:23:08.382Z,24.40
2018-04-20T18:25:40.267Z,24.30
2018-04-20T18:28:12.915Z,24.20
2018-04-20T18:30:44.794Z,24.10
2018-04-20T18:33:16.679Z,24.10
2018-04-20T18:35:48.569Z,24.00
2018-04-20T18:38:20.806Z,23.90
2018-04-20T18:40:52.722Z,23.80
2018-04-20T18:43:24.619Z,23.80
2018-04-20T18:45:57.512Z,23.60
2018-04-20T18:48:29.681Z,23.60
2018-04-20T18:51:01.563Z,23.50
2018-04-20T18:53:33.447Z,23.50
2018-04-20T18:56:05.323Z,23.40
2018-04-20T18:58:37.215Z,23.40
2018-04-20T19:01:09.102Z,23.30
2018-04-20T19:03:40.998Z,23.30
2018-04-20T19:06:13.219Z,23.20
2018-04-20T19:08:45.099Z,23.10
2018-04-20T19:11:16.970Z,23.10
2018-04-20T19:13:48.866Z,23.00
2018-04-20T19:16:21.733Z,22.90
2018-04-20T19:18:53.622Z,22.90
2018-04-20T19:21:26.301Z,22.80
2018-04-20T19:23:58.971Z,22.70
2018-04-20T19:26:31.615Z,22.70
2018-04-20T19:29:03.757Z,22.60
2018-04-20T19:31:35.655Z,22.60
2018-04-20T19:34:07.546Z,22.70
2018-04-20T19:36:40.184Z,22.60
2018-04-20T19:39:12.079Z,22.60
2018-04-20T19:41:44.717Z,22.60
2018-04-20T19:44:16.658Z,22.60
2018-04-20T19:46:48.794Z,22.50
2018-04-20T19:49:20.686Z,22.50
2018-04-20T19:51:52.562Z,22.40
2018-04-20T19:54:24.455Z,22.40
2018-04-20T19:56:57.094Z,22.30
2018-04-20T19:59:28.990Z,22.30
2018-04-20T20:02:00.858Z,22.20
2018-04-20T20:04:33.762Z,22.20
2018-04-20T20:07:05.638Z,22.10
2018-04-20T20:09:37.525Z,22.10
2018-04-20T20:12:09.402Z,22.10
2018-04-20T20:14:41.306Z,22.00
2018-04-20T20:17:13.186Z,22.00
2018-04-20T20:19:45.127Z,21.90
2018-04-20T20:22:17.746Z,21.80
2018-04-20T20:24:49.659Z,21.80
2018-04-20T20:27:21.542Z,21.80
2018-04-20T20:29:53.430Z,21.70
2018-04-20T20:32:25.316Z,21.70
2018-04-20T20:34:57.210Z,21.60
2018-04-20T20:37:29.090Z,21.60
2018-04-20T20:40:00.983Z,21.50
2018-04-20T20:42:32.862Z,21.50
2018-04-20T20:45:05.523Z,21.40
2018-04-20T20:47:37.397Z,21.40
2018-04-20T20:50:10.306Z,21.30
2018-04-20T20:52:42.199Z,21.30
2018-04-20T20:55:14.091Z,21.30
2018-04-20T20:57:45.965Z,21.30
2018-04-20T21:00:18.618Z,21.20
2018-04-20T21:02:50.511Z,21.20
2018-04-20T21:05:23.162Z,21.10
2018-04-20T21:07:55.060Z,21.10
2018-04-20T21:10:26.954Z,21.10
2018-04-20T21:12:58.835Z,21.00
2018-04-20T21:15:30.722Z,21.00
2018-04-20T21:18:03.630Z,20.90
2018-04-20T21:20:35.516Z,20.90
2018-04-20T21:23:07.657Z,20.90
2018-04-20T21:25:39.555Z,20.80
2018-04-20T21:28:11.441Z,20.80
2018-04-20T21:30:43.325Z,20.80
2018-04-20T21:33:15.973Z,20.70
2018-04-20T21:35:47.868Z,20.60
2018-04-20T21:38:19.778Z,20.60
2018-04-20T21:40:51.697Z,20.60
2018-04-20T21:43:23.607Z,20.50
2018-04-20T21:45:55.494Z,20.50
2018-04-20T21:48:28.142Z,20.40
2018-04-20T21:51:00.035Z,20.40
2018-04-20T21:53:32.675Z,20.30
2018-04-20T21:56:04.571Z,20.30
2018-04-20T21:58:37.218Z,20.20
2018-04-20T22:01:09.109Z,20.20
2018-04-20T22:03:41.758Z,20.10
2018-04-20T22:06:13.663Z,20.10
2018-04-20T22:08:46.555Z,20.10
2018-04-20T22:11:18.722Z,20.10
2018-04-20T22:13:50.594Z,20.00
2018-04-20T22:16:22.486Z,19.90
2018-04-20T22:18:54.358Z,19.90
2018-04-20T22:21:26.566Z,19.80
2018-04-20T22:23:58.441Z,19.80
2018-04-20T22:26:30.339Z,19.70
2018-04-20T22:29:02.215Z,19.70
2018-04-20T22:31:34.173Z,19.70
2018-04-20T22:34:06.058Z,19.60
2018-04-20T22:36:38.718Z,19.50
2018-04-20T22:39:10.597Z,19.50
2018-04-20T22:41:43.258Z,19.40
2018-04-20T22:44:15.136Z,19.40
2018-04-20T22:46:47.794Z,19.30
2018-04-20T22:49:19.677Z,19.30
2018-04-20T22:51:52.329Z,19.30
2018-04-20T22:54:24.206Z,19.20
2018-04-20T22:56:56.858Z,19.20
2018-04-20T22:59:28.787Z,19.20
2018-04-20T23:02:01.402Z,19.20
2018-04-20T23:04:33.273Z,19.10
2018-04-20T23:07:05.166Z,19.10
2018-04-20T23:09:37.046Z,19.10
2018-04-20T23:12:08.931Z,19.00
2018-04-20T23:14:40.801Z,19.00
2018-04-20T23:17:12.690Z,18.90
2018-04-20T23:19:45.336Z,18.90
2018-04-20T23:22:17.222Z,18.80
2018-04-20T23:24:49.869Z,18.80
2018-04-20T23:27:21.766Z,18.80
2018-04-20T23:29:54.405Z,18.70
2018-04-20T23:32:26.294Z,18.70
2018-04-20T23:34:58.938Z,18.70
2018-04-20T23:37:30.829Z,18.70
2018-04-20T23:40:02.702Z,18.70
2018-04-20T23:42:35.378Z,18.60
2018-04-20T23:45:08.062Z,18.50
2018-04-20T23:47:40.722Z,18.50
2018-04-20T23:50:12.598Z,18.50
2018-04-20T23:52:45.254Z,18.40
2018-04-20T23:55:17.130Z,18.40
2018-04-20T23:57:49.784Z,18.40
